createdAt,value
2023-02-23T00:02:06.354Z,62.17
2023-02-23T00:04:34.575Z,69.57
2023-02-23T00:07:01.511Z,50.43
2023-02-23T00:09:35.921Z,64.67
2023-02-23T00:12:08.206Z,59.53
2023-02-23T00:14:37.829Z,62.77
2023-02-23T00:17:05.584Z,59.70
2023-02-23T00:19:33.629Z,63.63
2023-02-23T00:22:01.271Z,59.70
2023-02-23T00:24:28.188Z,66.00
2023-02-23T00:26:56.138Z,60.60
2023-02-23T00:29:24.896Z,59.70
2023-02-23T00:31:52.802Z,58.10
2023-02-23T00:34:21.634Z,60.83
2023-02-23T00:36:55.229Z,61.03
2023-02-23T00:39:26.594Z,64.47
2023-02-23T00:41:54.858Z,69.73
2023-02-23T00:44:23.672Z,59.33
2023-02-23T00:46:52.047Z,62.33
2023-02-23T00:49:20.809Z,67.67
2023-02-23T00:51:48.395Z,63.17
2023-02-23T00:54:16.961Z,63.00
2023-02-23T00:56:44.212Z,64.23
2023-02-23T00:59:11.746Z,66.07
2023-02-23T01:01:41.816Z,65.60
2023-02-23T01:04:09.312Z,64.77
2023-02-23T01:06:37.862Z,70.43
2023-02-23T01:09:14.598Z,62.63
2023-02-23T01:11:41.875Z,66.90
2023-02-23T01:14:10.628Z,66.37
2023-02-23T01:16:39.049Z,63.70
2023-02-23T01:19:06.731Z,66.27
2023-02-23T01:21:38.867Z,58.70
2023-02-23T01:24:06.810Z,60.60
2023-02-23T01:26:36.027Z,64.03
2023-02-23T01:29:08.842Z,64.90
2023-02-23T01:31:37.924Z,63.27
2023-02-23T01:34:06.204Z,58.83
2023-02-23T01:36:39.041Z,62.07
2023-02-23T01:39:09.229Z,63.00
2023-02-23T01:41:37.189Z,65.10
2023-02-23T01:44:27.001Z,62.47
2023-02-23T01:46:53.902Z,65.43
2023-02-23T01:49:25.744Z,65.13
2023-02-23T01:52:04.963Z,66.07
2023-02-23T01:54:39.074Z,69.17
2023-02-23T01:57:07.730Z,59.43
2023-02-23T01:59:39.950Z,71.53
2023-02-23T02:02:07.783Z,70.10
2023-02-23T02:04:45.935Z,64.00
2023-02-23T02:07:25.323Z,83.77
2023-02-23T02:10:31.922Z,70.30
2023-02-23T02:12:58.866Z,73.10
2023-02-23T02:15:32.005Z,68.40
2023-02-23T02:18:30.832Z,67.47
2023-02-23T02:21:18.394Z,68.90
2023-02-23T02:23:54.384Z,74.60
2023-02-23T02:26:29.606Z,70.60
2023-02-23T02:42:21.663Z,75.23
2023-02-23T02:45:19.103Z,76.37
2023-02-23T02:47:54.839Z,68.80
2023-02-23T02:50:46.570Z,68.67
2023-02-23T02:53:23.791Z,80.77
2023-02-23T02:55:52.967Z,75.43
2023-02-23T02:58:19.798Z,71.10
2023-02-23T03:01:08.591Z,72.60
2023-02-23T03:04:01.020Z,82.47
2023-02-23T03:07:16.692Z,74.33
2023-02-23T03:10:48.955Z,72.57
2023-02-23T03:14:15.749Z,71.87
2023-02-23T03:17:19.011Z,74.73
2023-02-23T03:20:49.135Z,75.27
2023-02-23T03:23:52.441Z,70.37
2023-02-23T03:27:00.977Z,78.33
2023-02-23T03:30:04.188Z,74.30
2023-02-23T03:33:13.115Z,75.43
2023-02-23T03:36:16.471Z,76.30
2023-02-23T03:39:13.401Z,73.37
2023-02-23T03:42:00.784Z,75.07
2023-02-23T03:44:57.706Z,75.10
2023-02-23T03:47:47.138Z,77.10
2023-02-23T03:50:52.874Z,76.90
2023-02-23T03:53:45.812Z,89.13
2023-02-23T03:56:35.066Z,87.50
2023-02-23T03:59:22.901Z,80.00
2023-02-23T04:02:09.951Z,82.13
2023-02-23T04:04:56.509Z,89.40
2023-02-23T04:07:42.944Z,77.20
2023-02-23T04:10:29.316Z,76.83
2023-02-23T04:13:24.166Z,78.17
2023-02-23T04:16:01.661Z,86.17
2023-02-23T04:18:30.877Z,81.33
2023-02-23T04:20:58.401Z,88.53
2023-02-23T04:23:25.896Z,88.87
2023-02-23T04:25:53.369Z,84.87
2023-02-23T04:28:21.693Z,88.13
2023-02-23T04:30:48.774Z,96.40
2023-02-23T04:33:16.022Z,85.77
2023-02-23T04:35:42.950Z,86.00
2023-02-23T04:38:10.151Z,88.10
2023-02-23T04:40:37.133Z,88.93
2023-02-23T04:43:03.968Z,89.23
2023-02-23T04:45:30.886Z,87.67
2023-02-23T04:47:57.750Z,88.53
2023-02-23T04:50:24.623Z,90.67
2023-02-23T04:52:53.381Z,89.40
2023-02-23T04:55:23.068Z,86.57
2023-02-23T04:57:50.390Z,91.50
2023-02-23T05:00:18.747Z,92.73
2023-02-23T05:02:46.062Z,90.37
2023-02-23T05:05:13.188Z,100.37
2023-02-23T05:07:40.046Z,91.13
2023-02-23T05:10:07.491Z,93.03
2023-02-23T05:12:34.341Z,87.20
2023-02-23T05:15:01.221Z,93.87
2023-02-23T05:17:28.595Z,86.97
2023-02-23T05:19:56.321Z,100.30
2023-02-23T05:22:23.485Z,92.20
2023-02-23T05:24:50.457Z,86.43
2023-02-23T05:27:17.948Z,97.43
2023-02-23T05:29:44.990Z,92.47
2023-02-23T05:32:12.027Z,86.90
2023-02-23T05:34:39.308Z,99.57
2023-02-23T05:37:06.501Z,94.80
2023-02-23T05:39:33.540Z,93.10
2023-02-23T05:42:00.388Z,95.80
2023-02-23T05:44:27.505Z,90.43
2023-02-23T05:46:54.435Z,85.60
2023-02-23T05:49:21.545Z,94.60
2023-02-23T05:51:48.696Z,88.90
2023-02-23T05:54:15.634Z,95.50
2023-02-23T05:56:43.317Z,93.50
2023-02-23T05:59:10.441Z,92.20
2023-02-23T06:01:37.316Z,93.10
2023-02-23T06:04:06.101Z,96.53
2023-02-23T06:06:33.372Z,104.40
2023-02-23T06:09:00.312Z,100.23
2023-02-23T06:11:27.293Z,89.97
2023-02-23T06:13:54.170Z,93.47
2023-02-23T06:16:21.169Z,94.73
2023-02-23T06:18:48.262Z,99.93
2023-02-23T06:21:15.195Z,95.30
2023-02-23T06:23:42.070Z,96.17
2023-02-23T06:26:09.586Z,107.23
2023-02-23T06:28:36.588Z,104.27
2023-02-23T06:31:03.973Z,104.30
2023-02-23T06:33:30.900Z,111.57
2023-02-23T06:35:57.798Z,111.70
2023-02-23T06:38:24.797Z,94.93
2023-02-23T06:40:51.623Z,108.80
2023-02-23T06:43:18.720Z,106.07
2023-02-23T06:45:47.147Z,106.90
2023-02-23T06:48:14.106Z,105.77
2023-02-23T06:50:41.060Z,107.33
2023-02-23T06:53:08.536Z,116.37
2023-02-23T06:55:35.406Z,105.70
2023-02-23T06:58:02.351Z,117.60
2023-02-23T07:00:30.563Z,107.70
2023-02-23T07:02:57.968Z,129.43
2023-02-23T07:05:24.852Z,109.07
2023-02-23T07:07:52.166Z,116.10
2023-02-23T07:10:19.161Z,120.43
2023-02-23T07:12:46.085Z,106.10
2023-02-23T07:15:12.976Z,105.30
2023-02-23T07:17:39.857Z,103.67
2023-02-23T07:20:07.188Z,112.23
2023-02-23T07:22:34.295Z,112.00
2023-02-23T07:25:01.294Z,111.93
2023-02-23T07:27:28.327Z,121.70
2023-02-23T07:29:55.213Z,107.50
2023-02-23T07:32:22.339Z,108.30
2023-02-23T07:34:49.312Z,111.40
2023-02-23T07:37:17.224Z,106.07
2023-02-23T07:39:44.350Z,101.43
2023-02-23T07:42:11.244Z,115.87
2023-02-23T07:44:38.804Z,111.87
2023-02-23T07:47:06.389Z,103.00
2023-02-23T07:49:34.338Z,107.47
2023-02-23T07:52:01.206Z,102.53
2023-02-23T07:54:28.196Z,116.17
2023-02-23T07:56:55.111Z,119.03
2023-02-23T07:59:21.980Z,114.13
2023-02-23T08:01:48.955Z,102.93
2023-02-23T08:04:15.841Z,109.10
2023-02-23T08:06:42.790Z,109.80
2023-02-23T08:09:11.249Z,101.83
2023-02-23T08:11:38.643Z,109.13
2023-02-23T08:14:05.510Z,118.27
2023-02-23T08:16:33.572Z,109.80
2023-02-23T08:19:01.252Z,116.37
2023-02-23T08:21:29.581Z,114.63
2023-02-23T08:23:57.957Z,123.50
2023-02-23T08:26:25.748Z,128.60
2023-02-23T08:28:53.867Z,117.97
2023-02-23T08:31:24.424Z,138.93
2023-02-23T08:33:52.933Z,143.57
2023-02-23T08:36:20.969Z,144.00
2023-02-23T08:38:48.254Z,127.23
2023-02-23T08:41:15.529Z,137.00
2023-02-23T08:43:44.111Z,141.50
2023-02-23T08:46:11.649Z,134.37
2023-02-23T08:48:40.567Z,139.23
2023-02-23T08:51:08.952Z,145.50
2023-02-23T08:53:36.502Z,134.03
2023-02-23T08:56:06.251Z,144.67
2023-02-23T08:58:34.160Z,130.13
2023-02-23T09:01:01.727Z,140.00
2023-02-23T09:03:30.802Z,135.80
2023-02-23T09:06:08.221Z,151.93
2023-02-23T09:08:35.329Z,151.13
2023-02-23T09:11:02.176Z,138.30
2023-02-23T09:13:29.065Z,142.40
2023-02-23T09:15:55.995Z,139.00
2023-02-23T09:18:24.176Z,137.03
2023-02-23T09:20:51.594Z,143.07
2023-02-23T09:23:18.559Z,139.87
2023-02-23T09:25:45.971Z,126.57
2023-02-23T09:28:17.952Z,133.10
2023-02-23T09:30:46.590Z,146.97
2023-02-23T09:33:13.990Z,154.37
2023-02-23T09:35:41.514Z,140.63
2023-02-23T09:38:09.356Z,140.00
2023-02-23T09:40:54.247Z,133.90
2023-02-23T09:44:02.724Z,128.23
2023-02-23T09:46:59.032Z,131.70
2023-02-23T09:49:29.911Z,121.80
2023-02-23T09:52:00.422Z,136.47
2023-02-23T09:54:32.797Z,123.80
2023-02-23T09:57:04.917Z,127.13
2023-02-23T09:59:31.937Z,128.30
2023-02-23T10:02:26.075Z,137.57
2023-02-23T10:05:03.933Z,126.70
2023-02-23T10:07:56.051Z,117.77
2023-02-23T10:10:42.435Z,127.80
2023-02-23T10:13:29.513Z,113.57
2023-02-23T10:16:18.598Z,115.43
2023-02-23T10:19:00.502Z,109.47
2023-02-23T10:21:53.978Z,116.40
2023-02-23T10:24:43.833Z,113.67
2023-02-23T10:27:16.541Z,117.20
2023-02-23T10:29:52.846Z,101.27
2023-02-23T10:32:42.046Z,105.67
2023-02-23T10:35:14.658Z,106.73
2023-02-23T10:37:41.895Z,111.43
2023-02-23T10:40:18.403Z,120.60
2023-02-23T10:42:45.357Z,106.47
2023-02-23T10:45:23.527Z,109.83
2023-02-23T10:48:03.997Z,104.13
2023-02-23T10:50:31.892Z,107.63
2023-02-23T10:53:24.237Z,107.40
2023-02-23T10:56:13.887Z,104.43
2023-02-23T10:58:56.212Z,109.00
2023-02-23T11:02:01.025Z,105.30
2023-02-23T11:04:35.337Z,111.40
2023-02-23T11:07:29.761Z,108.33
2023-02-23T11:09:58.570Z,111.90
2023-02-23T11:12:43.864Z,109.17
2023-02-23T11:15:48.545Z,115.33
2023-02-23T11:18:24.904Z,109.20
2023-02-23T11:20:52.548Z,110.33
2023-02-23T11:23:24.463Z,100.53
2023-02-23T11:25:55.628Z,106.10
2023-02-23T11:28:30.351Z,93.63
2023-02-23T11:31:09.499Z,101.53
2023-02-23T11:33:39.760Z,93.93
2023-02-23T11:36:28.093Z,93.40
2023-02-23T11:39:06.915Z,88.97
2023-02-23T11:41:37.187Z,86.47
2023-02-23T11:44:06.405Z,78.53
2023-02-23T11:46:38.133Z,79.77
2023-02-23T11:49:14.844Z,85.93
2023-02-23T11:51:49.162Z,75.53
2023-02-23T11:54:36.181Z,73.87
2023-02-23T11:57:10.272Z,81.13
2023-02-23T11:59:40.550Z,73.80
2023-02-23T12:02:25.795Z,65.93
2023-02-23T12:05:17.030Z,68.30
2023-02-23T12:07:51.565Z,61.53
2023-02-23T12:10:32.938Z,70.03
2023-02-23T12:13:38.620Z,57.53
2023-02-23T12:16:25.018Z,62.83
2023-02-23T12:19:25.859Z,62.43
2023-02-23T12:22:20.271Z,43.40
2023-02-23T12:25:14.618Z,50.73
2023-02-23T12:27:55.554Z,54.20
2023-02-23T12:30:52.308Z,50.67
2023-02-23T12:33:41.911Z,53.23
2023-02-23T12:36:42.814Z,53.30
2023-02-23T12:39:30.495Z,47.50
2023-02-23T12:42:20.525Z,49.17
2023-02-23T12:44:53.771Z,47.13
2023-02-23T12:47:57.986Z,51.13
2023-02-23T12:50:32.162Z,37.77
2023-02-23T12:53:07.046Z,47.47
2023-02-23T12:56:18.984Z,38.57
2023-02-23T12:59:30.933Z,48.33
2023-02-23T13:02:02.234Z,41.90
2023-02-23T13:05:22.684Z,45.43
2023-02-23T13:08:13.711Z,40.50
2023-02-23T13:10:55.635Z,41.67
2023-02-23T13:13:44.530Z,40.13
2023-02-23T13:16:29.623Z,39.80
2023-02-23T13:19:21.156Z,41.87
2023-02-23T13:22:33.799Z,36.20
2023-02-23T13:25:07.912Z,42.60
2023-02-23T13:27:43.098Z,42.10
2023-02-23T13:30:11.831Z,48.73
2023-02-23T13:32:39.645Z,55.63
2023-02-23T13:35:13.386Z,42.77
2023-02-23T13:37:59.703Z,42.60
2023-02-23T13:40:36.178Z,41.33
2023-02-23T13:43:30.188Z,46.40
2023-02-23T13:46:27.974Z,39.70
2023-02-23T13:49:18.395Z,41.00
2023-02-23T13:51:56.584Z,43.60
2023-02-23T13:54:30.710Z,41.73
2023-02-23T13:57:01.442Z,44.73
2023-02-23T13:59:38.514Z,47.23
2023-02-23T14:02:34.945Z,38.50
2023-02-23T14:05:04.941Z,43.33
2023-02-23T14:07:33.324Z,49.83
2023-02-23T14:10:07.290Z,44.60
2023-02-23T14:12:42.636Z,40.83
2023-02-23T14:15:48.434Z,39.63
2023-02-23T14:18:35.846Z,55.50
2023-02-23T14:21:26.612Z,46.17
2023-02-23T14:24:17.707Z,37.03
2023-02-23T14:27:38.619Z,49.90
2023-02-23T14:30:15.982Z,40.67
2023-02-23T14:32:48.554Z,40.87
2023-02-23T14:35:44.067Z,42.50
2023-02-23T14:38:17.480Z,42.30
2023-02-23T14:40:49.089Z,47.43
2023-02-23T14:43:42.494Z,41.70
2023-02-23T14:46:17.146Z,45.30
2023-02-23T14:48:58.631Z,43.57
2023-02-23T14:51:34.195Z,42.73
2023-02-23T14:54:01.455Z,48.80
2023-02-23T14:56:43.291Z,44.97
2023-02-23T14:59:21.192Z,46.33
2023-02-23T15:01:50.610Z,41.93
2023-02-23T15:04:20.870Z,51.07
2023-02-23T15:06:48.341Z,46.20
2023-02-23T15:09:29.552Z,48.97
2023-02-23T15:11:57.620Z,51.63
2023-02-23T15:14:28.160Z,53.90
2023-02-23T15:16:56.705Z,43.27
2023-02-23T15:19:26.225Z,47.40
2023-02-23T15:21:55.222Z,49.20
2023-02-23T15:24:27.543Z,44.17
2023-02-23T15:26:57.855Z,49.20
2023-02-23T15:29:30.200Z,43.47
2023-02-23T15:32:13.013Z,42.73
2023-02-23T15:34:40.134Z,47.30
2023-02-23T15:37:17.274Z,45.77
2023-02-23T15:39:58.641Z,45.17
2023-02-23T15:42:35.806Z,45.23
2023-02-23T15:45:05.642Z,49.80
2023-02-23T15:47:36.724Z,47.90
2023-02-23T15:50:36.514Z,50.87
2023-02-23T15:53:13.774Z,46.90
2023-02-23T15:55:43.867Z,42.80
2023-02-23T15:58:25.058Z,48.00
2023-02-23T16:01:08.598Z,46.03
2023-02-23T16:03:38.080Z,48.87
2023-02-23T16:06:08.397Z,45.37
2023-02-23T16:08:36.966Z,43.97
2023-02-23T16:11:19.202Z,45.67
2023-02-23T16:13:46.890Z,49.37
2023-02-23T16:16:20.468Z,44.10
2023-02-23T16:18:53.353Z,46.33
2023-02-23T16:21:25.426Z,45.77
2023-02-23T16:23:54.512Z,47.30
2023-02-23T16:26:57.334Z,45.20
2023-02-23T16:29:42.454Z,47.53
2023-02-23T16:32:33.667Z,46.50
2023-02-23T16:35:03.969Z,48.90
2023-02-23T16:37:30.913Z,49.43
2023-02-23T16:39:57.803Z,50.40
2023-02-23T16:42:32.609Z,61.47
2023-02-23T16:45:00.299Z,53.57
2023-02-23T16:47:42.351Z,58.23
2023-02-23T16:50:22.350Z,57.67
2023-02-23T16:52:54.461Z,52.43
2023-02-23T16:55:26.249Z,64.13
2023-02-23T16:57:57.055Z,55.33
2023-02-23T17:00:28.736Z,55.40
2023-02-23T17:02:57.490Z,56.30
2023-02-23T17:05:25.168Z,58.30
2023-02-23T17:07:52.783Z,59.90
2023-02-23T17:10:26.126Z,54.80
2023-02-23T17:12:59.408Z,58.30
2023-02-23T17:15:30.022Z,65.87
2023-02-23T17:17:57.505Z,65.33
2023-02-23T17:20:26.131Z,63.03
2023-02-23T17:22:58.253Z,68.23
2023-02-23T17:25:26.685Z,48.80
2023-02-23T17:27:57.868Z,47.67
2023-02-23T17:30:25.404Z,49.50
2023-02-23T17:32:55.297Z,54.73
2023-02-23T17:35:23.112Z,48.47
2023-02-23T17:37:50.416Z,65.07
2023-02-23T17:40:29.128Z,53.53
2023-02-23T17:42:58.649Z,52.53
2023-02-23T17:45:26.973Z,60.60
2023-02-23T17:47:54.437Z,57.47
2023-02-23T17:50:22.712Z,59.53
2023-02-23T17:52:51.009Z,55.00
2023-02-23T17:55:19.631Z,54.17
2023-02-23T17:57:47.258Z,51.30
2023-02-23T18:00:16.745Z,54.03
2023-02-23T18:02:45.200Z,48.97
2023-02-23T18:05:13.589Z,57.93
2023-02-23T18:07:41.178Z,52.87
2023-02-23T18:10:09.478Z,55.23
2023-02-23T18:12:36.540Z,49.63
2023-02-23T18:15:03.822Z,49.93
2023-02-23T18:17:32.649Z,56.43
2023-02-23T18:20:00.551Z,47.30
2023-02-23T18:22:28.140Z,53.87
2023-02-23T18:24:57.125Z,51.67
2023-02-23T18:27:24.620Z,49.70
2023-02-23T18:29:51.503Z,57.60
2023-02-23T18:32:18.652Z,54.77
2023-02-23T18:34:45.692Z,51.13
2023-02-23T18:37:12.679Z,58.07
2023-02-23T18:39:40.639Z,62.43
2023-02-23T18:42:07.607Z,55.77
2023-02-23T18:44:35.338Z,58.67
2023-02-23T18:47:03.301Z,63.67
2023-02-23T18:49:30.354Z,56.43
2023-02-23T18:51:58.208Z,55.80
2023-02-23T18:57:06.962Z,45.23
2023-02-23T18:59:34.017Z,57.40
2023-02-23T19:02:00.881Z,56.40
2023-02-23T19:04:27.994Z,51.80
2023-02-23T19:06:54.938Z,58.87
2023-02-23T19:09:21.764Z,59.17
2023-02-23T19:11:50.752Z,56.30
2023-02-23T19:14:19.907Z,59.70
2023-02-23T19:16:48.287Z,57.53
2023-02-23T19:19:16.141Z,53.60
2023-02-23T19:21:43.111Z,49.40
2023-02-23T19:24:10.280Z,53.97
2023-02-23T19:26:38.282Z,61.33
2023-02-23T19:29:06.221Z,72.93
2023-02-23T19:31:34.293Z,65.33
2023-02-23T19:34:03.438Z,53.67
2023-02-23T19:36:31.773Z,60.60
2023-02-23T19:39:11.075Z,59.97
2023-02-23T19:41:39.839Z,57.50
2023-02-23T19:44:06.858Z,60.67
2023-02-23T19:46:35.025Z,54.60
2023-02-23T19:49:02.009Z,53.13
2023-02-23T19:51:28.947Z,49.93
2023-02-23T19:53:57.277Z,58.73
2023-02-23T19:56:25.050Z,50.60
2023-02-23T19:58:52.346Z,65.20
2023-02-23T20:01:21.409Z,70.37
2023-02-23T20:03:55.387Z,78.93
2023-02-23T20:06:25.416Z,68.63
2023-02-23T20:08:52.726Z,61.30
2023-02-23T20:11:20.340Z,58.53
2023-02-23T20:13:47.535Z,70.87
2023-02-23T20:16:15.084Z,60.67
2023-02-23T20:18:43.925Z,77.40
2023-02-23T20:21:24.560Z,57.90
2023-02-23T20:23:51.742Z,59.77
2023-02-23T20:26:26.476Z,62.90
2023-02-23T20:28:54.764Z,65.20
2023-02-23T20:31:26.637Z,55.33
2023-02-23T20:33:56.131Z,69.07
2023-02-23T20:36:24.400Z,64.27
2023-02-23T20:38:52.152Z,85.87
2023-02-23T20:41:20.222Z,75.70
2023-02-23T20:43:47.469Z,41.07
2023-02-23T20:46:16.938Z,29.53
2023-02-23T20:48:43.994Z,33.77
2023-02-23T20:51:15.199Z,24.13
2023-02-23T20:53:46.823Z,22.63
2023-02-23T20:56:17.118Z,19.87
2023-02-23T20:58:46.247Z,25.57
2023-02-23T21:01:22.913Z,17.23
2023-02-23T21:03:51.639Z,22.57
2023-02-23T21:06:20.132Z,20.27
2023-02-23T21:08:51.140Z,9.00
2023-02-23T21:11:19.932Z,27.03
2023-02-23T21:13:47.267Z,18.57
2023-02-23T21:16:16.871Z,17.33
2023-02-23T21:18:44.016Z,19.93
2023-02-23T21:21:12.000Z,13.40
2023-02-23T21:23:43.386Z,17.57
2023-02-23T21:26:13.460Z,23.40
2023-02-23T21:28:42.286Z,30.53
2023-02-23T21:31:11.015Z,31.90
2023-02-23T21:33:39.216Z,20.63
2023-02-23T21:36:10.487Z,15.93
2023-02-23T21:38:42.842Z,36.97
2023-02-23T21:41:11.340Z,43.17
2023-02-23T21:43:40.138Z,30.67
2023-02-23T21:46:13.127Z,27.63
2023-02-23T21:48:40.845Z,35.73
2023-02-23T21:51:11.527Z,37.97
2023-02-23T21:53:39.272Z,26.90
2023-02-23T21:56:11.901Z,25.63
2023-02-23T21:58:43.240Z,24.80
2023-02-23T22:01:15.775Z,25.00
2023-02-23T22:03:45.159Z,31.77
2023-02-23T22:06:20.783Z,27.93
2023-02-23T22:08:50.622Z,22.53
2023-02-23T22:11:24.862Z,22.57
2023-02-23T22:13:54.519Z,34.80
2023-02-23T22:16:22.281Z,23.23
2023-02-23T22:18:50.639Z,16.30
2023-02-23T22:21:19.072Z,35.23
2023-02-23T22:24:15.654Z,24.10
2023-02-23T22:26:53.837Z,22.93
2023-02-23T22:29:22.699Z,23.70
2023-02-23T22:31:50.059Z,20.70
2023-02-23T22:34:18.453Z,27.03
2023-02-23T22:36:45.622Z,27.97
2023-02-23T22:39:18.506Z,20.13
2023-02-23T22:41:46.853Z,18.03
2023-02-23T22:44:16.812Z,26.07
2023-02-23T22:46:46.533Z,19.57
2023-02-23T22:49:16.051Z,22.37
2023-02-23T22:51:44.354Z,24.90
2023-02-23T22:54:13.429Z,15.40
2023-02-23T22:56:42.295Z,22.00
2023-02-23T22:59:11.105Z,28.20
2023-02-23T23:01:39.833Z,21.13
2023-02-23T23:04:10.543Z,24.33
2023-02-23T23:06:40.258Z,20.77
2023-02-23T23:09:09.498Z,22.73
2023-02-23T23:11:36.438Z,25.47
2023-02-23T23:14:07.057Z,23.70
2023-02-23T23:16:35.792Z,21.40
2023-02-23T23:19:08.073Z,24.53
2023-02-23T23:21:35.910Z,25.07
2023-02-23T23:24:07.654Z,17.33
2023-02-23T23:26:39.854Z,23.43
2023-02-23T23:29:10.229Z,26.50
2023-02-23T23:31:38.524Z,26.63
2023-02-23T23:34:10.078Z,25.50
2023-02-23T23:36:43.119Z,25.97
2023-02-23T23:39:16.309Z,34.83
2023-02-23T23:41:48.002Z,32.23
2023-02-23T23:44:21.013Z,21.70
2023-02-23T23:46:50.809Z,20.97
2023-02-23T23:49:20.735Z,33.43
2023-02-23T23:51:50.700Z,15.73
2023-02-23T23:54:24.393Z,27.83
2023-02-23T23:56:51.504Z,25.30
2023-02-23T23:59:21.546Z,32.07
